Time;durP1;ratioP1;P1;durP2;ratioP2;P2;SDS_P1;SDS_P2;PMS_P1;PMS_P2;Temp;Humidity;BMP_temperature;BMP_pressure;BME280_temperature;BME280_humidity;BME280_pressure;Samples;Min_cycle;Max_cycle;Signal;HPM_P1;HPM_P2
2022/11/10 00:00:14;;;;;;;;;7.50;5.50;;;;;12.55;64.58;101431.75;4976786;28;45214;-60
2022/11/10 00:02:42;;;;;;;;;4.25;4.25;;;;;12.41;64.91;101406.06;4977283;28;45693;-61
2022/11/10 00:05:09;;;;;;;;;7.80;6.40;;;;;12.73;65.04;101462.28;4960187;28;45454;-61
2022/11/10 00:07:35;;;;;;;;;10.40;7.60;;;;;12.64;64.96;101447.00;4943882;28;45405;-61
2022/11/10 00:10:00;;;;;;;;;6.25;5.25;;;;;12.71;64.76;101460.81;4960559;28;45380;-61
2022/11/10 00:12:26;;;;;;;;;6.25;6.25;;;;;12.43;64.86;101417.75;4976289;28;45440;-61
2022/11/10 00:17:36;;;;;;;;;6.20;6.20;;;;;12.81;64.81;101475.00;4977588;28;45386;-61
2022/11/10 00:20:02;;;;;;;;;7.50;6.00;;;;;12.79;64.95;101476.28;4977569;28;45641;-62
2022/11/10 00:22:27;;;;;;;;;6.50;5.00;;;;;12.80;64.83;101483.50;4959931;28;45276;-61
2022/11/10 00:24:53;;;;;;;;;6.50;6.25;;;;;12.58;64.69;101459.72;4975664;28;45418;-62
2022/11/10 00:27:18;;;;;;;;;9.75;5.75;;;;;12.58;64.57;101464.34;4977411;28;45493;-61
2022/11/10 00:29:44;;;;;;;;;5.00;4.25;;;;;12.79;64.78;101498.31;4975449;28;45321;-61
2022/11/10 00:32:09;;;;;;;;;8.50;6.50;;;;;12.79;64.68;101499.16;5008117;28;48411;-61
2022/11/10 00:34:35;;;;;;;;;6.25;5.00;;;;;12.78;65.00;101504.88;4976784;28;45423;-61
2022/11/10 00:37:01;;;;;;;;;9.50;5.50;;;;;12.68;65.18;101502.53;4956043;28;45516;-62
2022/11/10 00:39:27;;;;;;;;;8.60;8.60;;;;;12.62;65.54;101495.94;4969099;28;45388;-61
2022/11/10 00:41:52;;;;;;;;;6.00;6.00;;;;;12.71;65.17;101508.47;4955954;28;45544;-61
2022/11/10 00:44:18;;;;;;;;;10.50;10.00;;;;;12.71;65.07;101513.97;4956113;28;45358;-61
2022/11/10 00:46:44;;;;;;;;;10.50;10.00;;;;;12.73;65.19;101511.88;4956073;28;45456;-61
2022/11/10 00:49:10;;;;;;;;;8.80;8.40;;;;;12.73;65.17;101503.63;4955982;28;45377;-61
2022/11/10 00:51:35;;;;;;;;;6.75;5.00;;;;;12.74;64.90;101516.31;4969790;28;45405;-61
2022/11/10 00:54:01;;;;;;;;;7.00;7.00;;;;;12.50;65.28;101479.19;4976568;28;45442;-61
2022/11/10 00:56:26;;;;;;;;;6.00;5.50;;;;;12.71;64.90;101527.75;4976541;28;45409;-61
2022/11/10 00:58:52;;;;;;;;;9.00;5.50;;;;;12.73;65.13;101524.78;4976508;28;45582;-61
2022/11/10 01:01:18;;;;;;;;;7.50;5.75;;;;;12.72;65.14;101523.09;4976371;28;45692;-61
2022/11/10 01:03:44;;;;;;;;;8.00;6.40;;;;;12.71;65.25;101527.75;4976360;28;45346;-61
2022/11/10 01:06:14;;;;;;;;;6.75;5.25;;;;;12.69;65.18;101529.00;5008274;28;45359;-62
2022/11/10 01:08:39;;;;;;;;;9.20;7.80;;;;;12.64;65.35;101526.88;4975273;28;45531;-62
2022/11/10 01:11:09;;;;;;;;;7.25;7.00;;;;;12.50;65.45;101512.22;4976011;28;45616;-61
2022/11/10 01:13:35;;;;;;;;;4.60;4.60;;;;;12.64;65.52;101526.03;4976117;28;45430;-61
2022/11/10 01:16:05;;;;;;;;;9.40;7.80;;;;;12.61;65.56;101535.56;4976139;28;45273;-61
2022/11/10 01:18:30;;;;;;;;;5.80;5.00;;;;;12.63;65.62;101535.38;5007981;28;45371;-62
2022/11/10 01:20:56;;;;;;;;;17.50;10.75;;;;;12.59;65.88;101533.00;4976180;28;45696;-61
2022/11/10 01:23:21;;;;;;;;;7.75;7.75;;;;;11.93;65.68;101427.91;4976133;28;45410;-61
2022/11/10 01:25:47;;;;;;;;;9.00;9.00;;;;;12.55;65.83;101541.88;4974719;28;45414;-62
2022/11/10 01:28:12;;;;;;;;;8.75;8.50;;;;;12.53;65.49;101541.25;4976106;28;45362;-61
2022/11/10 01:30:38;;;;;;;;;10.75;9.00;;;;;12.52;66.08;101542.28;4976235;28;46477;-61
2022/11/10 01:33:03;;;;;;;;;11.00;9.25;;;;;12.19;66.02;101508.06;4975912;28;45228;-61
2022/11/10 01:35:29;;;;;;;;;8.50;8.50;;;;;12.46;65.71;101543.97;4976081;28;45315;-61
2022/11/10 01:37:54;;;;;;;;;11.25;8.75;;;;;12.38;66.23;101555.16;4975039;28;45520;-61
2022/11/10 01:40:20;;;;;;;;;10.00;9.00;;;;;12.36;66.13;101554.50;4963651;28;46691;-61
2022/11/10 01:42:50;;;;;;;;;10.00;10.00;;;;;12.07;66.09;101519.63;4952370;28;45449;-60
2022/11/10 01:45:29;;;;;;;;;12.00;10.00;;;;;12.28;66.48;101558.28;4971866;28;45426;-61
2022/11/10 01:47:57;;;;;;;;;11.20;9.60;;;;;11.95;66.52;101501.13;4972855;28;45453;-60
2022/11/10 01:50:23;;;;;;;;;12.00;10.00;;;;;12.25;66.52;101559.53;4972903;28;45783;-60
2022/11/10 01:52:50;;;;;;;;;7.00;7.00;;;;;12.26;66.59;101554.88;4967614;28;45450;-61
2022/11/10 01:55:15;;;;;;;;;7.80;7.20;;;;;12.05;66.51;101524.50;4974574;28;45376;-61
2022/11/10 01:57:40;;;;;;;;;12.50;10.50;;;;;12.33;66.30;101569.53;4974431;28;45361;-60
2022/11/10 02:00:07;;;;;;;;;9.00;9.00;;;;;12.03;66.55;101540.38;4975347;28;45696;-61
2022/11/10 02:02:36;;;;;;;;;8.20;8.20;;;;;12.10;66.37;101545.06;4974474;28;45373;-61
2022/11/10 02:05:02;;;;;;;;;9.80;9.00;;;;;12.07;65.81;101549.91;4975520;28;45409;-61
2022/11/10 02:07:28;;;;;;;;;11.00;7.60;;;;;12.23;66.49;101582.81;4974617;28;45401;-60
2022/11/10 02:09:53;;;;;;;;;8.00;8.00;;;;;12.23;66.73;101583.66;4975279;28;45798;-60
2022/11/10 02:12:35;;;;;;;;;12.00;10.50;;;;;12.03;66.68;101550.47;5006935;28;45422;-60
2022/11/10 02:15:02;;;;;;;;;12.60;9.40;;;;;12.24;66.48;101579.00;4974195;28;45425;-60
2022/11/10 02:17:28;;;;;;;;;9.80;9.80;;;;;12.20;66.65;101573.91;4974347;28;45558;-60
2022/11/10 02:19:57;;;;;;;;;9.75;9.75;;;;;12.23;66.55;101578.16;5006679;28;45515;-61
2022/11/10 02:22:23;;;;;;;;;8.80;8.80;;;;;11.96;66.81;101539.44;4975456;28;45387;-60
2022/11/10 02:24:48;;;;;;;;;11.50;9.00;;;;;12.22;66.54;101581.94;4975403;28;45821;-60
2022/11/10 02:27:14;;;;;;;;;14.00;11.25;;;;;12.16;67.08;101580.00;4975676;28;45774;-61
2022/11/10 02:29:39;;;;;;;;;8.50;8.50;;;;;12.15;66.87;101579.16;4973574;28;46857;-60
2022/11/10 02:32:05;;;;;;;;;11.50;11.00;;;;;12.13;67.09;101575.78;4975482;28;45269;-60
2022/11/10 02:34:30;;;;;;;;;11.50;11.50;;;;;12.14;66.98;101582.13;4974253;28;45296;-61
2022/11/10 02:36:56;;;;;;;;;18.50;12.50;;;;;12.14;67.00;101588.47;4975787;28;45201;-59
2022/11/10 02:39:21;;;;;;;;;9.25;9.25;;;;;12.15;66.93;101584.66;4975088;28;45980;-60
2022/11/10 02:41:47;;;;;;;;;8.00;8.00;;;;;12.09;67.03;101574.47;4975836;28;45783;-59
2022/11/10 02:44:12;;;;;;;;;15.00;12.25;;;;;11.92;67.13;101547.22;4975628;28;45408;-59
2022/11/10 02:46:38;;;;;;;;;9.00;9.00;;;;;11.91;67.14;101547.44;4975895;28;45338;-61
2022/11/10 02:49:03;;;;;;;;;10.00;10.00;;;;;11.90;67.27;101556.75;4974657;28;45494;-61
2022/11/10 02:51:29;;;;;;;;;13.00;8.50;;;;;12.09;67.34;101587.38;5005003;28;45350;-61
2022/11/10 02:53:54;;;;;;;;;6.25;6.00;;;;;12.03;67.54;101584.38;4975116;28;45728;-61
2022/11/10 02:56:20;;;;;;;;;10.00;8.25;;;;;12.02;67.37;101592.81;4978509;28;45439;-61
2022/11/10 02:58:45;;;;;;;;;10.00;6.50;;;;;11.99;67.08;101588.56;4978625;28;46208;-60
2022/11/10 03:01:11;;;;;;;;;9.75;9.00;;;;;11.97;67.75;101589.81;4949812;28;45458;-61
2022/11/10 03:03:37;;;;;;;;;7.00;5.00;;;;;11.99;67.65;101587.69;4978714;28;45401;-60
2022/11/10 03:06:02;;;;;;;;;9.00;6.00;;;;;11.99;67.44;101596.81;4978548;28;45408;-61
2022/11/10 03:08:28;;;;;;;;;11.75;9.75;;;;;11.93;67.75;101594.84;4978437;28;45372;-61
2022/11/10 03:10:54;;;;;;;;;8.75;7.00;;;;;11.88;68.26;101597.34;4978213;28;45412;-61
2022/11/10 03:13:20;;;;;;;;;9.00;9.00;;;;;11.89;67.69;101590.78;4978309;28;45322;-61
2022/11/10 03:15:48;;;;;;;;;13.50;10.75;;;;;11.84;68.23;101596.06;4977296;28;45405;-61
2022/11/10 03:18:14;;;;;;;;;9.80;9.60;;;;;11.81;67.96;101591.81;4977937;28;46698;-61
2022/11/10 03:20:40;;;;;;;;;9.25;9.25;;;;;11.82;67.91;101603.66;5009880;28;45466;-60
2022/11/10 03:23:05;;;;;;;;;10.50;10.50;;;;;11.83;68.05;101605.34;4978374;28;45356;-60
2022/11/10 03:25:31;;;;;;;;;8.00;8.00;;;;;11.84;68.17;101599.66;5010237;28;45365;-60
2022/11/10 03:27:56;;;;;;;;;8.25;5.75;;;;;11.85;67.76;101597.75;4977844;28;46415;-61
2022/11/10 03:30:22;;;;;;;;;9.25;8.00;;;;;11.85;68.05;101606.84;4976400;28;45483;-61
2022/11/10 03:32:47;;;;;;;;;9.75;9.75;;;;;11.84;67.96;101607.06;4978282;28;45399;-60
2022/11/10 03:35:13;;;;;;;;;8.00;8.00;;;;;11.84;67.84;101610.66;4977962;28;45232;-60
2022/11/10 03:37:41;;;;;;;;;12.50;9.00;;;;;11.59;67.98;101567.06;4977478;28;45455;-59
2022/11/10 03:40:07;;;;;;;;;9.00;8.60;;;;;11.82;67.69;101604.50;4977577;28;45738;-60
2022/11/10 03:42:32;;;;;;;;;10.20;9.00;;;;;11.79;67.97;101611.25;5009500;28;45407;-60
2022/11/10 03:44:58;;;;;;;;;8.50;8.00;;;;;11.77;68.10;101612.50;4978027;28;45406;-60
2022/11/10 03:47:23;;;;;;;;;15.00;9.75;;;;;11.80;68.23;101617.63;5008969;28;45424;-60
2022/11/10 03:49:49;;;;;;;;;9.50;9.50;;;;;11.74;68.11;101619.25;4977458;28;45430;-60
2022/11/10 03:52:14;;;;;;;;;14.75;10.25;;;;;11.69;68.10;101602.47;4968688;28;45639;-61
2022/11/10 03:54:40;;;;;;;;;10.25;9.75;;;;;11.71;67.77;101616.91;4940583;28;45417;-62
2022/11/10 03:57:05;;;;;;;;;14.75;11.00;;;;;11.62;68.63;101616.19;4958134;28;46202;-60
2022/11/10 03:59:31;;;;;;;;;8.00;5.50;;;;;11.56;68.56;101627.97;4957954;28;45450;-59
2022/11/10 04:01:56;;;;;;;;;10.25;10.25;;;;;11.50;68.48;101618.63;4958129;28;45506;-60
2022/11/10 04:09:53;;;;;;;;;7.80;6.60;;;;;11.43;68.78;101625.97;4956922;28;45349;-60
2022/11/10 04:15:44;;;;;;;;;11.00;8.20;;;;;11.41;68.85;101632.69;4956774;28;45439;-61
2022/11/10 04:17:51;;;;;;;;;9.40;9.40;;;;;11.46;68.45;101635.69;4946163;28;45925;-61
2022/11/10 04:20:16;;;;;;;;;10.75;7.50;;;;;11.43;69.19;101623.22;4945631;28;45954;-60
2022/11/10 04:25:26;;;;;;;;;8.60;6.60;;;;;11.48;68.45;101633.59;4957674;28;45312;-60
2022/11/10 04:27:51;;;;;;;;;12.00;9.00;;;;;11.47;68.10;101638.25;4957436;28;46670;-60
2022/11/10 04:30:17;;;;;;;;;9.50;9.50;;;;;11.46;68.56;101638.44;4956155;28;45725;-61
2022/11/10 04:32:42;;;;;;;;;9.00;6.25;;;;;11.42;68.38;101640.72;4957526;28;45790;-61
2022/11/10 04:35:08;;;;;;;;;10.00;9.00;;;;;11.15;68.60;101598.38;4956514;28;45459;-61
2022/11/10 04:37:33;;;;;;;;;10.00;10.00;;;;;11.44;68.64;101655.16;4956930;28;45443;-61
2022/11/10 04:39:59;;;;;;;;;10.50;8.00;;;;;11.46;68.88;101658.53;4955665;28;45423;-61
2022/11/10 04:42:24;;;;;;;;;8.00;6.50;;;;;11.43;68.63;101656.19;4957776;28;45321;-60
2022/11/10 04:44:50;;;;;;;;;10.00;6.00;;;;;11.35;68.61;101664.53;4957408;28;45366;-60
2022/11/10 04:47:15;;;;;;;;;9.25;9.25;;;;;11.31;68.86;101668.75;4957487;28;46472;-60
2022/11/10 04:49:41;;;;;;;;;9.50;9.50;;;;;11.33;68.73;101663.91;4956720;28;45237;-59
2022/11/10 04:52:06;;;;;;;;;7.00;7.00;;;;;11.31;68.83;101663.25;4964095;28;45753;-59
2022/11/10 04:54:32;;;;;;;;;8.75;8.75;;;;;11.29;68.66;101679.06;4977188;28;45363;-61
2022/11/10 04:56:57;;;;;;;;;4.50;4.00;;;;;11.33;68.77;101680.38;4976408;28;45857;-61
2022/11/10 04:59:22;;;;;;;;;10.75;10.25;;;;;11.33;68.87;101672.13;4976471;28;45330;-60
2022/11/10 05:01:48;;;;;;;;;10.25;9.00;;;;;10.78;69.05;101591.00;4976231;28;45375;-61
2022/11/10 05:04:13;;;;;;;;;11.00;10.00;;;;;11.30;68.92;101672.53;4976861;28;45552;-61
2022/11/10 05:06:39;;;;;;;;;7.50;7.50;;;;;11.27;69.09;101678.41;4975891;28;47750;-60
2022/11/10 05:09:04;;;;;;;;;10.75;10.00;;;;;11.30;68.80;101695.38;4976517;28;45326;-61
2022/11/10 05:11:30;;;;;;;;;11.50;9.25;;;;;11.27;68.66;101686.66;4976573;28;45232;-60
2022/11/10 05:13:55;;;;;;;;;11.50;9.50;;;;;11.29;69.02;101709.28;4976142;28;46136;-61
2022/11/10 05:16:21;;;;;;;;;10.25;9.25;;;;;11.07;68.58;101682.63;4974724;28;46429;-60
2022/11/10 05:18:52;;;;;;;;;10.75;10.50;;;;;11.16;68.73;101704.50;4974932;28;45319;-61
2022/11/10 05:21:18;;;;;;;;;7.20;7.20;;;;;11.18;69.29;101711.50;4976155;28;45377;-61
2022/11/10 05:23:45;;;;;;;;;9.00;9.00;;;;;10.97;69.04;101674.69;4976531;28;45597;-61
2022/11/10 05:26:12;;;;;;;;;12.20;9.20;;;;;11.17;68.91;101714.44;4975518;28;46021;-60
2022/11/10 05:28:38;;;;;;;;;13.20;9.00;;;;;11.20;68.73;101717.66;4975901;28;45425;-61
2022/11/10 05:31:03;;;;;;;;;14.60;10.20;;;;;11.17;69.04;101720.81;5007552;28;45483;-61
2022/11/10 05:33:29;;;;;;;;;15.00;13.00;;;;;11.00;68.72;101700.94;4976467;28;45647;-61
2022/11/10 05:35:54;;;;;;;;;13.25;12.00;;;;;11.19;69.29;101728.81;4975588;28;45420;-60
2022/11/10 05:38:20;;;;;;;;;11.00;10.00;;;;;11.15;68.68;101727.53;4975897;28;45388;-60
2022/11/10 05:40:45;;;;;;;;;13.50;10.00;;;;;11.13;68.96;101735.94;4974672;28;45504;-61
2022/11/10 05:43:11;;;;;;;;;9.00;9.00;;;;;11.12;69.65;101732.34;4975943;28;45345;-61
2022/11/10 05:45:36;;;;;;;;;13.50;9.00;;;;;11.16;69.32;101745.72;4975479;28;46869;-61
2022/11/10 05:48:02;;;;;;;;;9.50;9.50;;;;;11.17;69.28;101741.91;4975628;28;45692;-61
2022/11/10 05:50:27;;;;;;;;;10.75;9.00;;;;;11.16;69.20;101732.81;4975948;28;45391;-60
2022/11/10 05:52:53;;;;;;;;;8.25;8.25;;;;;11.15;68.64;101735.78;4963682;28;45436;-60
2022/11/10 05:55:21;;;;;;;;;10.00;8.00;;;;;11.00;69.17;101722.03;4938165;28;47428;-60
2022/11/10 05:57:48;;;;;;;;;10.20;8.60;;;;;11.14;68.95;101743.16;4939001;28;45453;-59
2022/11/10 06:00:15;;;;;;;;;7.80;7.60;;;;;11.13;68.75;101738.69;4955986;28;45547;-60
2022/11/10 06:02:42;;;;;;;;;9.80;9.40;;;;;11.11;69.19;101747.13;4956493;28;45552;-60
2022/11/10 06:05:08;;;;;;;;;8.60;8.60;;;;;11.08;68.87;101747.53;4955855;28;45460;-61
2022/11/10 06:07:33;;;;;;;;;10.25;9.75;;;;;11.06;68.91;101746.00;4935104;28;45627;-60
2022/11/10 06:09:58;;;;;;;;;12.50;10.00;;;;;10.94;69.06;101724.50;4975156;28;45271;-60
2022/11/10 06:12:24;;;;;;;;;10.00;8.75;;;;;11.06;68.95;101743.25;4974267;28;45522;-60
2022/11/10 06:14:50;;;;;;;;;9.00;8.00;;;;;10.98;68.86;101733.22;4975522;28;46176;-60
2022/11/10 06:17:17;;;;;;;;;15.40;10.20;;;;;10.96;69.68;101749.91;4973671;28;45343;-60
2022/11/10 06:19:42;;;;;;;;;10.40;8.00;;;;;10.98;69.47;101753.31;4975560;28;45331;-59
2022/11/10 06:22:08;;;;;;;;;8.75;7.75;;;;;10.97;69.17;101761.72;4975806;28;45546;-60
2022/11/10 06:24:33;;;;;;;;;9.00;8.25;;;;;10.96;68.98;101758.16;4975628;28;46267;-61
2022/11/10 06:26:59;;;;;;;;;10.75;9.00;;;;;10.93;69.97;101753.00;4975049;28;45517;-60
2022/11/10 06:29:24;;;;;;;;;10.25;6.00;;;;;10.90;69.76;101752.53;4975128;28;45373;-62
2022/11/10 06:31:50;;;;;;;;;10.25;9.25;;;;;10.83;69.39;101750.56;4975882;28;45441;-61
2022/11/10 06:34:15;;;;;;;;;8.75;8.75;;;;;10.90;70.10;101761.66;4975426;28;46729;-62
2022/11/10 06:36:41;;;;;;;;;8.25;6.00;;;;;10.08;69.87;101634.34;4975255;28;45366;-61
2022/11/10 06:39:06;;;;;;;;;9.50;8.00;;;;;10.68;69.15;101733.22;4975848;28;45292;-60
2022/11/10 06:41:35;;;;;;;;;9.75;9.75;;;;;10.86;69.52;101782.28;4974183;28;45555;-60
2022/11/10 06:44:00;;;;;;;;;8.80;8.00;;;;;10.82;70.13;101781.81;4975373;28;46097;-61
2022/11/10 06:46:26;;;;;;;;;10.25;9.25;;;;;10.84;69.86;101789.88;4973767;28;45345;-61
2022/11/10 06:48:51;;;;;;;;;9.25;8.75;;;;;10.80;69.89;101791.28;4975482;28;45855;-61
2022/11/10 06:51:19;;;;;;;;;8.75;7.25;;;;;10.79;69.92;101792.31;4975494;28;45704;-61
2022/11/10 06:53:45;;;;;;;;;10.20;8.60;;;;;10.81;69.68;101799.34;4956957;28;47992;-62
2022/11/10 06:56:10;;;;;;;;;11.00;9.00;;;;;10.83;69.67;101802.72;4955792;28;45416;-61
2022/11/10 06:58:35;;;;;;;;;11.50;11.25;;;;;10.80;69.94;101805.88;4955470;28;45387;-61
2022/11/10 07:01:01;;;;;;;;;7.00;7.00;;;;;10.80;69.72;101810.50;4955613;28;45526;-61
2022/11/10 07:03:27;;;;;;;;;10.75;8.75;;;;;10.77;69.54;101811.72;4954135;28;48170;-61
2022/11/10 07:05:52;;;;;;;;;9.00;8.25;;;;;10.80;69.27;101816.84;4955618;28;45391;-61
2022/11/10 07:08:18;;;;;;;;;10.50;9.25;;;;;10.79;69.30;101817.03;4955801;28;45375;-61
2022/11/10 07:10:51;;;;;;;;;11.00;11.00;;;;;10.77;69.59;101830.09;4955571;28;45519;-60
2022/11/10 07:13:16;;;;;;;;;9.40;9.40;;;;;10.39;69.50;101768.66;4955551;28;46686;-60
2022/11/10 07:15:42;;;;;;;;;9.50;8.75;;;;;10.67;70.00;101827.63;4953785;28;45449;-62
2022/11/10 07:18:07;;;;;;;;;11.50;10.25;;;;;10.63;69.31;101818.03;4954940;28;45352;-59
2022/11/10 07:20:34;;;;;;;;;15.75;9.75;;;;;10.70;69.27;101844.59;4955634;28;45696;-61
2022/11/10 07:23:00;;;;;;;;;12.00;9.40;;;;;10.75;69.83;101859.63;4937837;28;46633;-61
2022/11/10 07:25:26;;;;;;;;;11.40;11.20;;;;;10.74;69.84;101855.19;4955454;28;45483;-61
2022/11/10 07:27:53;;;;;;;;;9.60;9.20;;;;;10.63;69.81;101840.88;4953710;28;45382;-61
2022/11/10 07:30:19;;;;;;;;;9.80;9.80;;;;;10.42;69.65;101793.00;4953958;28;45630;-60
2022/11/10 07:32:44;;;;;;;;;8.25;7.50;;;;;10.68;70.23;101838.41;4955016;28;45484;-61
2022/11/10 07:35:10;;;;;;;;;10.25;9.25;;;;;10.77;69.83;101868.56;4955334;28;45331;-61
2022/11/10 07:37:36;;;;;;;;;10.25;9.00;;;;;10.75;69.73;101859.63;4953455;28;45409;-61
2022/11/10 07:40:01;;;;;;;;;10.00;10.00;;;;;10.76;69.90;101869.56;4954938;28;45481;-61
2022/11/10 07:42:27;;;;;;;;;15.00;11.25;;;;;10.65;69.82;101865.38;4938933;28;47512;-61
2022/11/10 07:44:52;;;;;;;;;10.00;8.25;;;;;10.69;69.99;101883.19;4958201;28;45830;-61
2022/11/10 07:47:18;;;;;;;;;10.75;9.00;;;;;10.66;70.38;101875.31;4957950;28;45449;-60
2022/11/10 07:49:43;;;;;;;;;14.25;12.00;;;;;10.70;70.53;101882.16;4958336;28;45566;-61
2022/11/10 07:52:09;;;;;;;;;12.75;10.00;;;;;10.70;70.07;101894.00;4961192;28;48020;-60
2022/11/10 07:54:34;;;;;;;;;13.25;12.00;;;;;10.75;69.89;101893.44;4977495;28;45234;-61
2022/11/10 07:57:00;;;;;;;;;14.00;12.00;;;;;10.77;69.53;101909.75;4975015;28;45362;-63
2022/11/10 07:59:26;;;;;;;;;12.50;12.50;;;;;10.73;70.21;101911.97;4961096;28;45868;-61
2022/11/10 08:01:51;;;;;;;;;13.25;12.50;;;;;10.75;69.52;101914.53;4975721;28;46092;-60
2022/11/10 08:04:17;;;;;;;;;13.00;9.00;;;;;10.75;69.54;101920.91;4977679;28;45250;-62
2022/11/10 08:06:42;;;;;;;;;10.25;10.25;;;;;10.76;69.92;101930.84;4976454;28;45368;-62
2022/11/10 08:09:08;;;;;;;;;12.00;11.25;;;;;10.75;69.66;101929.16;4977479;28;45291;-62
2022/11/10 08:11:34;;;;;;;;;11.00;11.00;;;;;10.69;69.77;101925.22;4959975;28;46872;-61
2022/11/10 08:13:59;;;;;;;;;14.25;12.00;;;;;10.66;70.13;101911.88;4975953;28;45927;-63
2022/11/10 08:16:24;;;;;;;;;15.00;14.00;;;;;10.79;70.37;101948.84;4977392;28;45431;-61
2022/11/10 08:18:50;;;;;;;;;16.25;12.25;;;;;10.83;70.03;101953.78;4976283;28;45474;-61
2022/11/10 08:21:16;;;;;;;;;16.00;13.50;;;;;10.54;69.85;101905.09;4976685;28;45393;-61
2022/11/10 08:23:41;;;;;;;;;12.25;11.00;;;;;10.81;70.28;101946.75;4977213;28;45440;-60
2022/11/10 08:26:07;;;;;;;;;12.00;10.50;;;;;10.82;70.38;101956.72;4975526;28;45238;-60
2022/11/10 08:28:32;;;;;;;;;14.25;13.50;;;;;10.74;69.99;101952.16;4976870;28;46621;-60
2022/11/10 08:30:58;;;;;;;;;18.25;13.75;;;;;10.80;69.47;101959.66;4975290;28;47660;-61
2022/11/10 08:33:23;;;;;;;;;12.00;11.75;;;;;10.84;70.15;101965.63;4977279;28;45385;-58
2022/11/10 08:35:49;;;;;;;;;21.25;14.75;;;;;10.86;70.40;101969.03;4976074;28;45418;-56
2022/11/10 08:38:17;;;;;;;;;21.60;18.00;;;;;10.82;69.69;101962.19;4977021;28;45307;-60
2022/11/10 08:40:42;;;;;;;;;17.20;15.80;;;;;10.80;70.49;101961.53;4977066;28;46651;-59
2022/11/10 08:43:08;;;;;;;;;18.00;16.50;;;;;10.85;70.53;101970.09;4975511;28;45390;-60
2022/11/10 08:45:34;;;;;;;;;20.25;17.75;;;;;10.83;70.34;101974.88;4976458;28;45419;-61
2022/11/10 08:48:01;;;;;;;;;18.40;17.00;;;;;10.79;70.17;101971.66;4977318;28;45428;-59
2022/11/10 08:50:27;;;;;;;;;20.80;18.80;;;;;10.73;69.77;101966.91;4976300;28;46698;-60
2022/11/10 08:52:53;;;;;;;;;19.25;17.00;;;;;10.64;70.00;101977.09;4976707;28;45323;-58
2022/11/10 08:55:21;;;;;;;;;20.50;17.25;;;;;10.70;69.61;101986.50;4976483;28;45426;-59
2022/11/10 08:57:47;;;;;;;;;20.40;19.60;;;;;10.30;70.03;101934.41;4977290;28;45214;-59
2022/11/10 09:00:14;;;;;;;;;28.75;21.50;;;;;10.63;70.52;102002.00;4937020;28;46594;-59
2022/11/10 09:02:39;;;;;;;;;24.60;18.20;;;;;10.47;69.45;101970.00;4968865;28;45418;-59
2022/11/10 09:05:05;;;;;;;;;17.25;17.25;;;;;10.75;69.62;102002.41;4977142;28;45360;-60
2022/11/10 09:07:31;;;;;;;;;20.20;17.40;;;;;10.67;70.31;102006.94;4975111;28;45575;-60
2022/11/10 09:09:56;;;;;;;;;20.75;16.00;;;;;10.48;69.88;101958.84;4976351;28;45388;-60
2022/11/10 09:12:22;;;;;;;;;24.50;19.25;;;;;10.73;70.64;102001.75;4976452;28;45831;-60
2022/11/10 09:14:47;;;;;;;;;18.50;18.50;;;;;10.73;70.36;102001.75;4976757;28;45421;-59
2022/11/10 09:17:13;;;;;;;;;24.25;21.50;;;;;10.76;70.80;102017.84;4976644;28;45537;-59
2022/11/10 09:19:38;;;;;;;;;26.50;20.00;;;;;10.75;70.40;102028.00;4974756;28;45490;-58
2022/11/10 09:22:04;;;;;;;;;22.75;22.50;;;;;10.80;70.72;102027.44;4976631;28;45410;-60
2022/11/10 09:24:29;;;;;;;;;23.50;20.00;;;;;10.60;70.64;101988.63;4976626;28;45308;-61
2022/11/10 09:26:55;;;;;;;;;22.50;20.75;;;;;10.84;70.28;102017.81;4969059;28;45456;-61
2022/11/10 09:29:21;;;;;;;;;21.75;21.25;;;;;10.92;70.08;102028.75;4972197;28;45399;-60
2022/11/10 09:31:47;;;;;;;;;18.80;18.80;;;;;10.94;70.65;102043.13;4974362;28;45421;-60
2022/11/10 09:34:13;;;;;;;;;24.50;18.00;;;;;10.96;70.60;102035.59;4974039;28;45349;-59
2022/11/10 09:36:39;;;;;;;;;23.25;21.50;;;;;10.92;70.55;102034.22;4973270;28;45308;-60
2022/11/10 09:39:06;;;;;;;;;22.80;21.40;;;;;11.04;70.44;102036.56;4974378;28;47195;-59
2022/11/10 09:41:31;;;;;;;;;25.00;18.40;;;;;10.83;70.76;101988.63;4969075;28;45391;-58
2022/11/10 09:44:05;;;;;;;;;20.75;18.25;;;;;11.07;70.79;102039.81;4955091;28;45485;-57
2022/11/10 09:46:34;;;;;;;;;20.80;18.20;;;;;10.43;71.51;101936.59;4939250;28;45483;-59
2022/11/10 09:49:23;;;;;;;;;25.80;21.60;;;;;11.14;70.99;102039.06;4953097;28;45591;-59
2022/11/10 09:51:48;;;;;;;;;26.00;21.60;;;;;11.22;71.01;102030.75;4960748;28;45551;-57
2022/11/10 09:54:38;;;;;;;;;22.75;19.75;;;;;11.38;70.14;102043.50;4956284;28;45692;-57
2022/11/10 09:57:05;;;;;;;;;25.00;17.40;;;;;11.36;70.31;102031.81;4955183;28;45454;-58
2022/11/10 09:59:31;;;;;;;;;19.20;19.00;;;;;11.27;70.43;102003.56;4969669;28;46367;-59
2022/11/10 10:02:11;;;;;;;;;21.40;18.20;;;;;11.57;70.01;102041.28;4960045;28;45646;-58
2022/11/10 10:04:58;;;;;;;;;24.20;19.80;;;;;11.68;69.69;102053.69;4963276;28;45524;-60
2022/11/10 10:07:30;;;;;;;;;21.60;19.20;;;;;11.79;69.21;102042.22;4972854;28;45769;-57
2022/11/10 10:10:28;;;;;;;;;26.00;21.40;;;;;11.83;68.63;102051.81;4972568;28;46449;-59
2022/11/10 10:13:03;;;;;;;;;23.40;18.60;;;;;11.58;68.99;102012.72;4962658;28;45551;-59
2022/11/10 10:15:56;;;;;;;;;20.00;16.00;;;;;11.82;69.14;102052.88;4954806;28;45483;-55
2022/11/10 10:18:35;;;;;;;;;27.60;25.00;;;;;11.95;69.28;102074.19;4971834;28;45438;-57
2022/11/10 10:21:33;;;;;;;;;21.40;18.20;;;;;11.99;68.37;102055.41;4972435;28;46968;-57
2022/11/10 10:24:01;;;;;;;;;23.20;19.20;;;;;12.12;67.87;102047.38;4972586;28;45403;-57
2022/11/10 10:26:32;;;;;;;;;25.60;23.00;;;;;12.29;67.61;102080.22;4975102;28;45517;-57
2022/11/10 10:29:09;;;;;;;;;20.60;19.80;;;;;12.38;67.44;102087.34;4992454;28;45405;-55
2022/11/10 10:31:39;;;;;;;;;25.60;20.60;;;;;12.40;67.74;102092.66;4986877;28;45670;-55
2022/11/10 10:34:12;;;;;;;;;22.80;20.20;;;;;12.41;67.52;102091.59;4937469;28;45344;-59
2022/11/10 10:36:38;;;;;;;;;19.60;19.20;;;;;12.41;67.61;102102.63;4956451;28;45352;-56
2022/11/10 10:39:06;;;;;;;;;24.25;22.25;;;;;12.47;67.38;102102.72;4972372;28;45574;-56
2022/11/10 10:41:32;;;;;;;;;28.00;24.80;;;;;12.52;67.02;102082.00;4971792;28;45444;-58
2022/11/10 10:43:59;;;;;;;;;27.20;21.20;;;;;12.71;66.89;102099.84;4952489;28;45706;-59
2022/11/10 10:46:25;;;;;;;;;19.40;19.40;;;;;12.85;66.72;102126.50;4953252;28;45416;-56
2022/11/10 10:49:09;;;;;;;;;19.75;18.50;;;;;12.80;66.66;102126.22;4958651;28;45422;-56
2022/11/10 10:51:35;;;;;;;;;24.20;20.00;;;;;12.71;67.28;102121.88;4971836;28;46498;-57
2022/11/10 10:54:00;;;;;;;;;24.50;22.50;;;;;12.76;67.07;102119.41;4973169;28;45718;-56
2022/11/10 10:56:27;;;;;;;;;24.50;20.00;;;;;12.60;66.94;102070.91;4973654;28;45457;-58
2022/11/10 10:58:54;;;;;;;;;25.60;21.20;;;;;12.71;66.51;102084.16;4972186;28;45526;-57
2022/11/10 11:01:29;;;;;;;;;28.60;23.80;;;;;13.06;66.03;102111.03;4971842;28;45391;-55
2022/11/10 11:03:55;;;;;;;;;27.00;20.40;;;;;13.15;65.70;102107.09;4953709;28;45348;-56
2022/11/10 11:06:24;;;;;;;;;24.75;22.00;;;;;13.19;65.50;102110.34;4953178;28;45388;-59
2022/11/10 11:08:55;;;;;;;;;24.80;22.20;;;;;13.14;65.64;102102.63;4949134;28;46059;-55
2022/11/10 11:11:24;;;;;;;;;26.60;20.60;;;;;13.28;65.67;102098.13;4971527;28;46396;-57
2022/11/10 11:13:49;;;;;;;;;27.20;21.00;;;;;13.81;64.81;102093.28;4963864;28;45653;-55
2022/11/10 11:16:15;;;;;;;;;22.25;19.00;;;;;14.75;63.00;102091.09;4973123;28;45417;-54
2022/11/10 11:18:40;;;;;;;;;22.75;21.25;;;;;18.18;54.47;102084.59;4976568;28;45472;-57
2022/11/10 11:21:32;;;;;;;;;19.50;18.50;;;;;19.63;49.33;102079.38;4976527;28;46341;-57
2022/11/10 11:24:18;;;;;;;;;19.20;18.20;;;;;19.67;49.05;102007.34;4975092;28;45385;-53
2022/11/10 11:26:47;;;;;;;;;16.60;16.60;;;;;21.46;45.70;102091.28;4958485;28;45457;-58
2022/11/10 11:29:33;;;;;;;;;23.00;20.20;;;;;22.93;42.69;102047.47;4975376;28;45432;-55